This is the latest recevied weather packets stored in our database for station/object VE2XOX. If no packets are shown the sender has not sent any weather packets the latest 10 day(s).
| Time | Temp. | Humidity | Pressure | Rain* | Wind** | Luminosity | Snow |
|---|---|---|---|---|---|---|---|
| 1777690513 | 1.67° C | 81% | 1010.5 hPa | 0 mm | - | - | - |
| 1777690224 | 1.67° C | 81% | 1010.4 hPa | 0 mm | - | - | - |
| 1777689929 | 1.67° C | 80% | 1010.5 hPa | 0 mm | - | - | - |
| 1777689635 | 2.22° C | 80% | 1010.5 hPa | 0 mm | - | - | - |
| 1777689320 | 2.22° C | 79% | 1010.6 hPa | 0 mm | - | - | - |
| 1777689026 | 2.22° C | 78% | 1010.6 hPa | 0 mm | - | - | - |
| 1777688736 | 2.78° C | 77% | 1010.6 hPa | 0 mm | - | - | - |
| 1777688421 | 2.78° C | 76% | 1010.5 hPa | 0 mm | - | - | - |
| 1777688127 | 2.78° C | 75% | 1010.5 hPa | 0 mm | - | - | - |
| 1777687812 | 3.33° C | 75% | 1010.4 hPa | 0 mm | - | - | - |
| 1777687525 | 3.33° C | 74% | 1010.4 hPa | 0 mm | - | - | - |
| 1777674323 | 7.78° C | 57% | 1009 hPa | 0 mm | - | - | - |
| 1777673125 | 7.78° C | 58% | 1008.9 hPa | 0 mm | - | - | - |
| 1777672225 | 8.33° C | 56% | 1008.8 hPa | 0 mm | - | - | - |
| 1777671928 | 8.33° C | 55% | 1008.7 hPa | 0 mm | - | - | - |
| 1777671326 | 8.33° C | 57% | 1008.5 hPa | 0 mm | - | - | - |
| 1777670114 | 8.33° C | 59% | 1008.3 hPa | 0 mm | - | - | - |
| 1777669825 | 8.33° C | 58% | 1008.2 hPa | 0 mm | - | - | - |
| 1777669512 | 8.33° C | 56% | 1008.2 hPa | 0 mm | - | - | - |
| 1777668927 | 8.33° C | 59% | 1008 hPa | 0 mm | - | - | - |
| 1777668031 | 8.33° C | 59% | 1007.8 hPa | 0 mm | - | - | - |
| 1777667423 | 8.89° C | 58% | 1007.6 hPa | 0 mm | - | - | - |
| 1777667135 | 8.89° C | 58% | 1007.6 hPa | 0 mm | - | - | - |
| 1777666821 | 8.89° C | 58% | 1007.6 hPa | 0 mm | - | - | - |
| 1777666525 | 8.89° C | 57% | 1007.7 hPa | 0 mm | - | - | - |
* Rain latest hour (hover to see other rain measurements)
** Current wind speed in m/s (hover to see current wind gust speed)